sensor_id;sensor_type;location;lat;lon;timestamp;temperature;humidity
7876;DHT22;69649;53.712;9.680;2024-02-26T00:00:05;1.90;76.10
7876;DHT22;69649;53.712;9.680;2024-02-26T00:02:33;1.90;76.00
7876;DHT22;69649;53.712;9.680;2024-02-26T00:05:00;1.80;76.10
7876;DHT22;69649;53.712;9.680;2024-02-26T00:07:26;1.80;76.20
7876;DHT22;69649;53.712;9.680;2024-02-26T00:09:52;1.80;76.10
7876;DHT22;69649;53.712;9.680;2024-02-26T00:12:17;1.80;76.10
7876;DHT22;69649;53.712;9.680;2024-02-26T00:14:43;1.80;75.90
7876;DHT22;69649;53.712;9.680;2024-02-26T00:17:12;1.70;75.70
7876;DHT22;69649;53.712;9.680;2024-02-26T00:19:37;1.70;75.80
7876;DHT22;69649;53.712;9.680;2024-02-26T00:22:03;1.70;75.70
7876;DHT22;69649;53.712;9.680;2024-02-26T00:24:29;1.70;75.70
7876;DHT22;69649;53.712;9.680;2024-02-26T00:26:55;1.70;75.70
7876;DHT22;69649;53.712;9.680;2024-02-26T00:29:20;1.60;75.80
7876;DHT22;69649;53.712;9.680;2024-02-26T00:31:47;1.70;76.00
7876;DHT22;69649;53.712;9.680;2024-02-26T00:34:33;1.70;76.10
7876;DHT22;69649;53.712;9.680;2024-02-26T00:36:58;1.60;76.10
7876;DHT22;69649;53.712;9.680;2024-02-26T00:39:24;1.60;76.10
7876;DHT22;69649;53.712;9.680;2024-02-26T00:41:50;1.60;76.20
7876;DHT22;69649;53.712;9.680;2024-02-26T00:44:17;1.60;76.10
7876;DHT22;69649;53.712;9.680;2024-02-26T00:46:43;1.50;76.10
7876;DHT22;69649;53.712;9.680;2024-02-26T00:49:08;1.50;76.10
7876;DHT22;69649;53.712;9.680;2024-02-26T00:51:34;1.50;76.00
7876;DHT22;69649;53.712;9.680;2024-02-26T00:54:00;1.50;76.00
7876;DHT22;69649;53.712;9.680;2024-02-26T00:56:25;1.40;76.10
7876;DHT22;69649;53.712;9.680;2024-02-26T00:58:51;1.40;76.10
7876;DHT22;69649;53.712;9.680;2024-02-26T01:01:17;1.40;75.90
7876;DHT22;69649;53.712;9.680;2024-02-26T01:03:43;1.40;76.40
7876;DHT22;69649;53.712;9.680;2024-02-26T01:06:08;1.40;76.90
7876;DHT22;69649;53.712;9.680;2024-02-26T01:08:35;1.40;77.10
7876;DHT22;69649;53.712;9.680;2024-02-26T01:11:01;1.40;77.20
7876;DHT22;69649;53.712;9.680;2024-02-26T01:13:27;1.30;77.20
7876;DHT22;69649;53.712;9.680;2024-02-26T01:15:53;1.30;77.10
7876;DHT22;69649;53.712;9.680;2024-02-26T01:18:19;1.20;76.90
7876;DHT22;69649;53.712;9.680;2024-02-26T01:21:04;1.20;76.80
7876;DHT22;69649;53.712;9.680;2024-02-26T01:23:32;1.10;76.70
7876;DHT22;69649;53.712;9.680;2024-02-26T01:25:58;1.10;76.50
7876;DHT22;69649;53.712;9.680;2024-02-26T01:28:23;1.10;76.50
7876;DHT22;69649;53.712;9.680;2024-02-26T01:30:49;1.10;76.50
7876;DHT22;69649;53.712;9.680;2024-02-26T01:33:15;1.00;76.40
7876;DHT22;69649;53.712;9.680;2024-02-26T01:35:41;1.00;76.30
7876;DHT22;69649;53.712;9.680;2024-02-26T01:38:07;1.00;76.30
7876;DHT22;69649;53.712;9.680;2024-02-26T01:40:32;1.00;76.60
7876;DHT22;69649;53.712;9.680;2024-02-26T01:42:59;0.90;76.70
7876;DHT22;69649;53.712;9.680;2024-02-26T01:45:26;0.90;76.80
7876;DHT22;69649;53.712;9.680;2024-02-26T01:47:52;0.90;76.90
7876;DHT22;69649;53.712;9.680;2024-02-26T01:50:19;0.80;77.00
7876;DHT22;69649;53.712;9.680;2024-02-26T01:52:50;0.80;77.10
7876;DHT22;69649;53.712;9.680;2024-02-26T01:55:17;0.80;77.10
7876;DHT22;69649;53.712;9.680;2024-02-26T01:57:45;0.80;77.20
7876;DHT22;69649;53.712;9.680;2024-02-26T02:00:12;0.80;77.20
7876;DHT22;69649;53.712;9.680;2024-02-26T02:02:39;0.80;77.10
7876;DHT22;69649;53.712;9.680;2024-02-26T02:05:08;0.80;76.90
7876;DHT22;69649;53.712;9.680;2024-02-26T02:07:35;0.80;77.00
7876;DHT22;69649;53.712;9.680;2024-02-26T02:10:01;0.80;77.40
7876;DHT22;69649;53.712;9.680;2024-02-26T02:12:28;0.80;77.70
7876;DHT22;69649;53.712;9.680;2024-02-26T02:14:54;0.80;78.00
7876;DHT22;69649;53.712;9.680;2024-02-26T02:17:20;0.80;78.10
7876;DHT22;69649;53.712;9.680;2024-02-26T02:19:46;0.80;78.10
7876;DHT22;69649;53.712;9.680;2024-02-26T02:22:11;0.80;78.00
7876;DHT22;69649;53.712;9.680;2024-02-26T02:24:37;0.80;77.90
7876;DHT22;69649;53.712;9.680;2024-02-26T02:27:03;0.70;77.70
7876;DHT22;69649;53.712;9.680;2024-02-26T02:29:29;0.70;77.70
7876;DHT22;69649;53.712;9.680;2024-02-26T02:31:55;0.70;77.60
7876;DHT22;69649;53.712;9.680;2024-02-26T02:34:21;0.70;77.80
7876;DHT22;69649;53.712;9.680;2024-02-26T02:36:52;0.70;77.70
7876;DHT22;69649;53.712;9.680;2024-02-26T02:39:38;0.60;77.60
7876;DHT22;69649;53.712;9.680;2024-02-26T02:42:04;0.60;77.50
7876;DHT22;69649;53.712;9.680;2024-02-26T02:44:30;0.60;77.50
7876;DHT22;69649;53.712;9.680;2024-02-26T02:46:56;0.60;77.50
7876;DHT22;69649;53.712;9.680;2024-02-26T02:49:22;0.60;77.50
7876;DHT22;69649;53.712;9.680;2024-02-26T02:51:49;0.60;77.80
7876;DHT22;69649;53.712;9.680;2024-02-26T02:54:15;0.60;78.10
7876;DHT22;69649;53.712;9.680;2024-02-26T02:56:40;0.60;78.70
7876;DHT22;69649;53.712;9.680;2024-02-26T02:59:06;0.60;79.40
7876;DHT22;69649;53.712;9.680;2024-02-26T03:01:32;0.60;79.70
7876;DHT22;69649;53.712;9.680;2024-02-26T03:03:58;0.60;80.00
7876;DHT22;69649;53.712;9.680;2024-02-26T03:06:24;0.60;80.20
7876;DHT22;69649;53.712;9.680;2024-02-26T03:08:51;0.60;80.20
7876;DHT22;69649;53.712;9.680;2024-02-26T03:11:17;0.60;80.20
7876;DHT22;69649;53.712;9.680;2024-02-26T03:13:43;0.60;80.20
7876;DHT22;69649;53.712;9.680;2024-02-26T03:16:09;0.60;80.30
7876;DHT22;69649;53.712;9.680;2024-02-26T03:18:34;0.60;80.30
7876;DHT22;69649;53.712;9.680;2024-02-26T03:21:00;0.60;80.40
7876;DHT22;69649;53.712;9.680;2024-02-26T03:23:46;0.60;80.30
7876;DHT22;69649;53.712;9.680;2024-02-26T03:26:12;0.60;80.20
7876;DHT22;69649;53.712;9.680;2024-02-26T03:28:40;0.60;80.10
7876;DHT22;69649;53.712;9.680;2024-02-26T03:31:05;0.60;79.90
7876;DHT22;69649;53.712;9.680;2024-02-26T03:33:31;0.60;79.80
7876;DHT22;69649;53.712;9.680;2024-02-26T03:35:57;0.60;79.70
7876;DHT22;69649;53.712;9.680;2024-02-26T03:38:23;0.60;79.60
7876;DHT22;69649;53.712;9.680;2024-02-26T03:40:48;0.60;79.50
7876;DHT22;69649;53.712;9.680;2024-02-26T03:43:14;0.60;79.40
7876;DHT22;69649;53.712;9.680;2024-02-26T03:45:40;0.60;79.30
7876;DHT22;69649;53.712;9.680;2024-02-26T03:48:06;0.50;79.30
7876;DHT22;69649;53.712;9.680;2024-02-26T03:50:32;0.60;79.30
7876;DHT22;69649;53.712;9.680;2024-02-26T03:52:58;0.50;79.20
7876;DHT22;69649;53.712;9.680;2024-02-26T03:55:25;0.50;79.20
7876;DHT22;69649;53.712;9.680;2024-02-26T03:57:51;0.50;79.20
7876;DHT22;69649;53.712;9.680;2024-02-26T04:00:18;0.50;79.10
7876;DHT22;69649;53.712;9.680;2024-02-26T04:02:43;0.50;79.10
7876;DHT22;69649;53.712;9.680;2024-02-26T04:05:10;0.50;79.10
7876;DHT22;69649;53.712;9.680;2024-02-26T04:07:37;0.40;79.20
7876;DHT22;69649;53.712;9.680;2024-02-26T04:10:03;0.40;79.30
7876;DHT22;69649;53.712;9.680;2024-02-26T04:12:32;0.40;79.20
7876;DHT22;69649;53.712;9.680;2024-02-26T04:14:57;0.40;79.30
7876;DHT22;69649;53.712;9.680;2024-02-26T04:17:24;0.40;79.20
7876;DHT22;69649;53.712;9.680;2024-02-26T04:19:49;0.40;79.30
7876;DHT22;69649;53.712;9.680;2024-02-26T04:22:15;0.40;79.30
7876;DHT22;69649;53.712;9.680;2024-02-26T04:24:41;0.40;79.50
7876;DHT22;69649;53.712;9.680;2024-02-26T04:27:06;0.30;80.00
7876;DHT22;69649;53.712;9.680;2024-02-26T04:29:32;0.30;80.40
7876;DHT22;69649;53.712;9.680;2024-02-26T04:31:58;0.30;80.80
7876;DHT22;69649;53.712;9.680;2024-02-26T04:34:24;0.30;81.30
7876;DHT22;69649;53.712;9.680;2024-02-26T04:36:49;0.20;81.50
7876;DHT22;69649;53.712;9.680;2024-02-26T04:39:15;0.20;81.80
7876;DHT22;69649;53.712;9.680;2024-02-26T04:41:41;0.20;82.00
7876;DHT22;69649;53.712;9.680;2024-02-26T04:44:07;0.20;82.10
7876;DHT22;69649;53.712;9.680;2024-02-26T04:46:32;0.20;82.30
7876;DHT22;69649;53.712;9.680;2024-02-26T04:48:58;0.20;82.40
7876;DHT22;69649;53.712;9.680;2024-02-26T04:51:24;0.20;82.50
7876;DHT22;69649;53.712;9.680;2024-02-26T04:53:50;0.20;82.60
7876;DHT22;69649;53.712;9.680;2024-02-26T04:56:15;0.30;82.70
7876;DHT22;69649;53.712;9.680;2024-02-26T04:58:41;0.30;82.80
7876;DHT22;69649;53.712;9.680;2024-02-26T05:01:07;0.30;82.90
7876;DHT22;69649;53.712;9.680;2024-02-26T05:03:35;0.40;82.90
7876;DHT22;69649;53.712;9.680;2024-02-26T05:06:00;0.30;83.00
7876;DHT22;69649;53.712;9.680;2024-02-26T05:08:26;0.30;83.00
7876;DHT22;69649;53.712;9.680;2024-02-26T05:10:52;0.30;83.00
7876;DHT22;69649;53.712;9.680;2024-02-26T05:13:18;0.30;82.90
7876;DHT22;69649;53.712;9.680;2024-02-26T05:15:44;0.30;83.00
7876;DHT22;69649;53.712;9.680;2024-02-26T05:18:11;0.40;83.00
7876;DHT22;69649;53.712;9.680;2024-02-26T05:20:37;0.40;83.00
7876;DHT22;69649;53.712;9.680;2024-02-26T05:23:03;0.40;83.00
7876;DHT22;69649;53.712;9.680;2024-02-26T05:25:29;0.40;83.00
7876;DHT22;69649;53.712;9.680;2024-02-26T05:27:55;0.40;83.00
7876;DHT22;69649;53.712;9.680;2024-02-26T05:30:21;0.40;83.00
7876;DHT22;69649;53.712;9.680;2024-02-26T05:32:47;0.50;82.90
7876;DHT22;69649;53.712;9.680;2024-02-26T05:35:13;0.40;82.90
7876;DHT22;69649;53.712;9.680;2024-02-26T05:37:39;0.40;82.80
7876;DHT22;69649;53.712;9.680;2024-02-26T05:40:06;0.40;82.70
7876;DHT22;69649;53.712;9.680;2024-02-26T05:42:32;0.40;82.60
7876;DHT22;69649;53.712;9.680;2024-02-26T05:44:57;0.40;82.60
7876;DHT22;69649;53.712;9.680;2024-02-26T05:47:23;0.40;82.60
7876;DHT22;69649;53.712;9.680;2024-02-26T05:50:13;0.40;82.60
7876;DHT22;69649;53.712;9.680;2024-02-26T05:52:56;0.40;82.50
7876;DHT22;69649;53.712;9.680;2024-02-26T05:55:22;0.30;82.40
7876;DHT22;69649;53.712;9.680;2024-02-26T05:57:48;0.30;82.40
7876;DHT22;69649;53.712;9.680;2024-02-26T06:00:15;0.30;82.30
7876;DHT22;69649;53.712;9.680;2024-02-26T06:02:41;0.30;82.40
7876;DHT22;69649;53.712;9.680;2024-02-26T06:05:07;0.30;82.40
7876;DHT22;69649;53.712;9.680;2024-02-26T06:07:34;0.30;82.50
7876;DHT22;69649;53.712;9.680;2024-02-26T06:10:02;1.90;84.00
7876;DHT22;69649;53.712;9.680;2024-02-26T06:12:28;3.80;85.60
7876;DHT22;69649;53.712;9.680;2024-02-26T06:14:55;3.00;85.00
7876;DHT22;69649;53.712;9.680;2024-02-26T06:17:21;2.20;84.40
7876;DHT22;69649;53.712;9.680;2024-02-26T06:19:47;1.70;83.70
7876;DHT22;69649;53.712;9.680;2024-02-26T06:22:13;1.40;83.20
7876;DHT22;69649;53.712;9.680;2024-02-26T06:24:39;1.10;82.70
7876;DHT22;69649;53.712;9.680;2024-02-26T06:27:05;1.00;82.50
7876;DHT22;69649;53.712;9.680;2024-02-26T06:29:31;0.90;82.60
7876;DHT22;69649;53.712;9.680;2024-02-26T06:31:56;0.80;82.50
7876;DHT22;69649;53.712;9.680;2024-02-26T06:34:22;0.70;82.40
7876;DHT22;69649;53.712;9.680;2024-02-26T06:36:48;0.70;82.40
7876;DHT22;69649;53.712;9.680;2024-02-26T06:39:13;0.60;82.40
7876;DHT22;69649;53.712;9.680;2024-02-26T06:41:41;0.60;82.30
7876;DHT22;69649;53.712;9.680;2024-02-26T06:44:07;0.60;82.30
7876;DHT22;69649;53.712;9.680;2024-02-26T06:46:33;0.60;82.10
7876;DHT22;69649;53.712;9.680;2024-02-26T06:48:58;0.60;81.90
7876;DHT22;69649;53.712;9.680;2024-02-26T06:51:25;0.60;81.80
7876;DHT22;69649;53.712;9.680;2024-02-26T06:53:50;0.60;81.70
7876;DHT22;69649;53.712;9.680;2024-02-26T06:56:16;0.60;81.70
7876;DHT22;69649;53.712;9.680;2024-02-26T06:58:42;0.60;81.70
7876;DHT22;69649;53.712;9.680;2024-02-26T07:01:07;0.60;81.70
7876;DHT22;69649;53.712;9.680;2024-02-26T07:03:34;0.70;81.70
7876;DHT22;69649;53.712;9.680;2024-02-26T07:06:00;0.70;81.80
7876;DHT22;69649;53.712;9.680;2024-02-26T07:08:25;0.80;81.70
7876;DHT22;69649;53.712;9.680;2024-02-26T07:10:51;0.80;81.70
7876;DHT22;69649;53.712;9.680;2024-02-26T07:13:17;0.80;81.60
7876;DHT22;69649;53.712;9.680;2024-02-26T07:15:43;0.80;81.50
7876;DHT22;69649;53.712;9.680;2024-02-26T07:18:09;0.80;81.40
7876;DHT22;69649;53.712;9.680;2024-02-26T07:20:35;0.80;81.40
7876;DHT22;69649;53.712;9.680;2024-02-26T07:23:01;0.90;81.30
7876;DHT22;69649;53.712;9.680;2024-02-26T07:25:28;1.00;81.40
7876;DHT22;69649;53.712;9.680;2024-02-26T07:27:54;1.00;81.40
7876;DHT22;69649;53.712;9.680;2024-02-26T07:30:19;1.00;81.40
7876;DHT22;69649;53.712;9.680;2024-02-26T07:32:45;1.00;81.30
7876;DHT22;69649;53.712;9.680;2024-02-26T07:35:11;1.00;81.20
7876;DHT22;69649;53.712;9.680;2024-02-26T07:37:37;1.00;81.10
7876;DHT22;69649;53.712;9.680;2024-02-26T07:40:04;1.00;81.20
7876;DHT22;69649;53.712;9.680;2024-02-26T07:42:30;1.10;81.20
7876;DHT22;69649;53.712;9.680;2024-02-26T07:45:15;1.10;81.20
7876;DHT22;69649;53.712;9.680;2024-02-26T07:47:43;1.10;81.10
7876;DHT22;69649;53.712;9.680;2024-02-26T07:50:09;1.10;81.20
7876;DHT22;69649;53.712;9.680;2024-02-26T07:52:35;1.10;81.50
7876;DHT22;69649;53.712;9.680;2024-02-26T07:55:01;1.20;81.50
7876;DHT22;69649;53.712;9.680;2024-02-26T07:57:26;1.30;81.60
7876;DHT22;69649;53.712;9.680;2024-02-26T08:00:12;1.30;81.70
7876;DHT22;69649;53.712;9.680;2024-02-26T08:02:40;1.40;81.70
7876;DHT22;69649;53.712;9.680;2024-02-26T08:05:06;1.40;81.80
7876;DHT22;69649;53.712;9.680;2024-02-26T08:07:32;1.50;81.90
7876;DHT22;69649;53.712;9.680;2024-02-26T08:09:58;1.60;81.80
7876;DHT22;69649;53.712;9.680;2024-02-26T08:12:23;1.60;81.80
7876;DHT22;69649;53.712;9.680;2024-02-26T08:14:49;1.70;81.70
7876;DHT22;69649;53.712;9.680;2024-02-26T08:17:15;1.80;81.70
7876;DHT22;69649;53.712;9.680;2024-02-26T08:19:41;1.80;81.70
7876;DHT22;69649;53.712;9.680;2024-02-26T08:22:07;1.90;81.90
7876;DHT22;69649;53.712;9.680;2024-02-26T08:24:33;2.00;81.80
7876;DHT22;69649;53.712;9.680;2024-02-26T08:26:58;2.10;81.80
7876;DHT22;69649;53.712;9.680;2024-02-26T08:29:24;2.20;81.90
7876;DHT22;69649;53.712;9.680;2024-02-26T08:31:50;2.30;81.80
7876;DHT22;69649;53.712;9.680;2024-02-26T08:34:15;2.40;81.80
7876;DHT22;69649;53.712;9.680;2024-02-26T08:36:41;2.50;81.60
7876;DHT22;69649;53.712;9.680;2024-02-26T08:39:08;2.50;81.50
7876;DHT22;69649;53.712;9.680;2024-02-26T08:41:34;2.60;81.50
7876;DHT22;69649;53.712;9.680;2024-02-26T08:44:00;2.70;81.50
7876;DHT22;69649;53.712;9.680;2024-02-26T08:46:26;2.80;81.40
7876;DHT22;69649;53.712;9.680;2024-02-26T08:48:51;2.90;81.20
7876;DHT22;69649;53.712;9.680;2024-02-26T08:51:17;3.00;81.10
7876;DHT22;69649;53.712;9.680;2024-02-26T08:53:43;3.00;80.70
7876;DHT22;69649;53.712;9.680;2024-02-26T08:56:10;3.00;80.60
7876;DHT22;69649;53.712;9.680;2024-02-26T08:58:40;3.10;80.70
7876;DHT22;69649;53.712;9.680;2024-02-26T09:01:06;3.10;80.50
7876;DHT22;69649;53.712;9.680;2024-02-26T09:03:32;3.10;80.60
7876;DHT22;69649;53.712;9.680;2024-02-26T09:05:57;3.20;80.60
7876;DHT22;69649;53.712;9.680;2024-02-26T09:08:23;3.20;80.50
7876;DHT22;69649;53.712;9.680;2024-02-26T09:10:49;3.30;80.50
7876;DHT22;69649;53.712;9.680;2024-02-26T09:13:15;3.30;80.50
7876;DHT22;69649;53.712;9.680;2024-02-26T09:15:41;3.30;80.50
7876;DHT22;69649;53.712;9.680;2024-02-26T09:18:07;3.30;80.50
7876;DHT22;69649;53.712;9.680;2024-02-26T09:20:32;3.30;80.40
7876;DHT22;69649;53.712;9.680;2024-02-26T09:25:46;3.50;80.30
7876;DHT22;69649;53.712;9.680;2024-02-26T09:28:12;3.50;80.40
7876;DHT22;69649;53.712;9.680;2024-02-26T09:30:38;3.50;80.20
7876;DHT22;69649;53.712;9.680;2024-02-26T09:33:04;3.50;80.20
7876;DHT22;69649;53.712;9.680;2024-02-26T09:35:30;3.60;80.30
7876;DHT22;69649;53.712;9.680;2024-02-26T09:37:56;3.60;80.20
7876;DHT22;69649;53.712;9.680;2024-02-26T09:40:22;3.70;80.20
7876;DHT22;69649;53.712;9.680;2024-02-26T09:42:50;3.80;80.10
7876;DHT22;69649;53.712;9.680;2024-02-26T09:45:18;3.90;80.20
7876;DHT22;69649;53.712;9.680;2024-02-26T09:47:47;3.90;80.20
7876;DHT22;69649;53.712;9.680;2024-02-26T09:50:14;4.00;80.20
7876;DHT22;69649;53.712;9.680;2024-02-26T09:52:43;4.00;80.20
7876;DHT22;69649;53.712;9.680;2024-02-26T09:55:10;4.10;80.20
7876;DHT22;69649;53.712;9.680;2024-02-26T09:57:45;4.20;80.20
7876;DHT22;69649;53.712;9.680;2024-02-26T10:00:14;4.20;80.10
7876;DHT22;69649;53.712;9.680;2024-02-26T10:02:41;4.30;79.90
7876;DHT22;69649;53.712;9.680;2024-02-26T10:05:10;4.30;79.70
7876;DHT22;69649;53.712;9.680;2024-02-26T10:07:37;4.40;79.80
7876;DHT22;69649;53.712;9.680;2024-02-26T10:10:03;4.40;79.70
7876;DHT22;69649;53.712;9.680;2024-02-26T10:12:29;4.50;79.30
7876;DHT22;69649;53.712;9.680;2024-02-26T10:14:57;4.50;79.40
7876;DHT22;69649;53.712;9.680;2024-02-26T10:17:23;4.50;79.20
7876;DHT22;69649;53.712;9.680;2024-02-26T10:19:49;4.50;79.20
7876;DHT22;69649;53.712;9.680;2024-02-26T10:22:16;4.70;79.30
7876;DHT22;69649;53.712;9.680;2024-02-26T10:24:42;4.70;79.30
7876;DHT22;69649;53.712;9.680;2024-02-26T10:27:08;4.80;79.20
7876;DHT22;69649;53.712;9.680;2024-02-26T10:29:34;4.90;79.20
7876;DHT22;69649;53.712;9.680;2024-02-26T10:32:00;5.00;79.00
7876;DHT22;69649;53.712;9.680;2024-02-26T10:34:28;5.00;78.70
7876;DHT22;69649;53.712;9.680;2024-02-26T10:36:53;5.00;78.70
7876;DHT22;69649;53.712;9.680;2024-02-26T10:39:19;5.00;78.60
7876;DHT22;69649;53.712;9.680;2024-02-26T10:41:45;5.10;78.90
7876;DHT22;69649;53.712;9.680;2024-02-26T10:44:12;5.20;78.90
7876;DHT22;69649;53.712;9.680;2024-02-26T10:46:40;5.30;78.70
7876;DHT22;69649;53.712;9.680;2024-02-26T10:51:56;5.20;78.30
7876;DHT22;69649;53.712;9.680;2024-02-26T10:54:26;5.20;78.20
7876;DHT22;69649;53.712;9.680;2024-02-26T10:56:53;5.10;78.10
7876;DHT22;69649;53.712;9.680;2024-02-26T10:59:21;5.10;78.40
7876;DHT22;69649;53.712;9.680;2024-02-26T11:01:48;5.10;78.30
7876;DHT22;69649;53.712;9.680;2024-02-26T11:04:16;5.10;78.30
7876;DHT22;69649;53.712;9.680;2024-02-26T11:06:44;5.10;78.30
7876;DHT22;69649;53.712;9.680;2024-02-26T11:09:14;5.20;78.30
7876;DHT22;69649;53.712;9.680;2024-02-26T11:11:41;5.20;78.30
7876;DHT22;69649;53.712;9.680;2024-02-26T11:14:08;5.30;78.70
7876;DHT22;69649;53.712;9.680;2024-02-26T11:16:35;5.40;78.70
7876;DHT22;69649;53.712;9.680;2024-02-26T11:19:02;5.50;78.60
7876;DHT22;69649;53.712;9.680;2024-02-26T11:21:29;5.60;78.70
7876;DHT22;69649;53.712;9.680;2024-02-26T11:23:57;5.70;77.90
7876;DHT22;69649;53.712;9.680;2024-02-26T11:26:24;5.70;77.40
7876;DHT22;69649;53.712;9.680;2024-02-26T11:28:51;5.70;77.30
7876;DHT22;69649;53.712;9.680;2024-02-26T11:31:18;5.60;77.50
7876;DHT22;69649;53.712;9.680;2024-02-26T11:33:47;5.60;77.50
7876;DHT22;69649;53.712;9.680;2024-02-26T11:36:12;5.70;77.80
7876;DHT22;69649;53.712;9.680;2024-02-26T11:38:39;5.60;77.40
7876;DHT22;69649;53.712;9.680;2024-02-26T11:41:06;5.60;77.50
7876;DHT22;69649;53.712;9.680;2024-02-26T11:44:00;5.60;77.40
7876;DHT22;69649;53.712;9.680;2024-02-26T11:46:31;5.60;77.50
7876;DHT22;69649;53.712;9.680;2024-02-26T11:49:02;5.60;77.20
7876;DHT22;69649;53.712;9.680;2024-02-26T11:51:33;5.60;77.30
7876;DHT22;69649;53.712;9.680;2024-02-26T11:54:00;5.70;77.30
7876;DHT22;69649;53.712;9.680;2024-02-26T11:56:26;5.70;77.10
7876;DHT22;69649;53.712;9.680;2024-02-26T11:59:09;5.70;76.90
7876;DHT22;69649;53.712;9.680;2024-02-26T12:01:43;5.70;77.00
7876;DHT22;69649;53.712;9.680;2024-02-26T12:04:24;5.70;77.20
7876;DHT22;69649;53.712;9.680;2024-02-26T12:07:12;5.80;77.40
7876;DHT22;69649;53.712;9.680;2024-02-26T12:09:42;5.80;76.70
7876;DHT22;69649;53.712;9.680;2024-02-26T12:12:09;5.70;76.20
7876;DHT22;69649;53.712;9.680;2024-02-26T12:14:39;5.60;76.10
7876;DHT22;69649;53.712;9.680;2024-02-26T12:17:07;5.50;76.30
7876;DHT22;69649;53.712;9.680;2024-02-26T12:19:37;5.50;76.50
7876;DHT22;69649;53.712;9.680;2024-02-26T12:22:06;5.40;76.40
7876;DHT22;69649;53.712;9.680;2024-02-26T12:24:58;5.40;76.70
7876;DHT22;69649;53.712;9.680;2024-02-26T12:27:24;5.40;76.90
7876;DHT22;69649;53.712;9.680;2024-02-26T12:29:50;5.50;76.90
7876;DHT22;69649;53.712;9.680;2024-02-26T12:32:16;5.50;77.10
7876;DHT22;69649;53.712;9.680;2024-02-26T12:34:42;5.50;77.20
7876;DHT22;69649;53.712;9.680;2024-02-26T12:37:07;5.30;77.20
7876;DHT22;69649;53.712;9.680;2024-02-26T12:39:37;5.30;77.50
7876;DHT22;69649;53.712;9.680;2024-02-26T12:42:03;5.30;77.30
7876;DHT22;69649;53.712;9.680;2024-02-26T12:44:31;5.30;77.20
7876;DHT22;69649;53.712;9.680;2024-02-26T12:47:04;5.30;77.40
7876;DHT22;69649;53.712;9.680;2024-02-26T12:49:30;5.30;77.40
7876;DHT22;69649;53.712;9.680;2024-02-26T12:51:56;5.40;77.60
7876;DHT22;69649;53.712;9.680;2024-02-26T12:54:24;5.50;77.10
7876;DHT22;69649;53.712;9.680;2024-02-26T12:56:50;5.40;76.60
7876;DHT22;69649;53.712;9.680;2024-02-26T12:59:15;5.40;76.40
7876;DHT22;69649;53.712;9.680;2024-02-26T13:01:41;5.40;76.40
7876;DHT22;69649;53.712;9.680;2024-02-26T13:04:07;5.50;76.80
7876;DHT22;69649;53.712;9.680;2024-02-26T13:06:33;5.50;76.90
7876;DHT22;69649;53.712;9.680;2024-02-26T13:09:00;5.40;76.70
7876;DHT22;69649;53.712;9.680;2024-02-26T13:11:28;5.50;77.00
7876;DHT22;69649;53.712;9.680;2024-02-26T13:13:55;5.50;76.80
7876;DHT22;69649;53.712;9.680;2024-02-26T13:16:24;5.60;76.60
7876;DHT22;69649;53.712;9.680;2024-02-26T13:18:50;5.60;76.10
7876;DHT22;69649;53.712;9.680;2024-02-26T13:21:18;5.60;76.10
7876;DHT22;69649;53.712;9.680;2024-02-26T13:23:51;5.60;76.10
7876;DHT22;69649;53.712;9.680;2024-02-26T13:26:17;5.70;76.00
7876;DHT22;69649;53.712;9.680;2024-02-26T13:28:42;5.70;76.10
7876;DHT22;69649;53.712;9.680;2024-02-26T13:31:09;5.70;75.70
7876;DHT22;69649;53.712;9.680;2024-02-26T13:33:34;5.70;75.70
7876;DHT22;69649;53.712;9.680;2024-02-26T13:36:00;5.80;75.80
7876;DHT22;69649;53.712;9.680;2024-02-26T13:38:27;5.80;75.50
7876;DHT22;69649;53.712;9.680;2024-02-26T13:40:56;5.90;75.00
7876;DHT22;69649;53.712;9.680;2024-02-26T13:43:22;5.80;75.10
7876;DHT22;69649;53.712;9.680;2024-02-26T13:45:48;5.80;75.20
7876;DHT22;69649;53.712;9.680;2024-02-26T13:48:14;5.90;75.20
7876;DHT22;69649;53.712;9.680;2024-02-26T13:50:41;5.90;75.00
7876;DHT22;69649;53.712;9.680;2024-02-26T13:53:09;5.90;74.90
7876;DHT22;69649;53.712;9.680;2024-02-26T13:55:35;5.80;75.10
7876;DHT22;69649;53.712;9.680;2024-02-26T13:58:02;5.90;75.20
7876;DHT22;69649;53.712;9.680;2024-02-26T14:00:29;6.00;74.80
7876;DHT22;69649;53.712;9.680;2024-02-26T14:02:58;6.00;74.90
7876;DHT22;69649;53.712;9.680;2024-02-26T14:05:24;6.00;75.00
7876;DHT22;69649;53.712;9.680;2024-02-26T14:07:49;6.00;74.90
7876;DHT22;69649;53.712;9.680;2024-02-26T14:10:15;5.90;75.10
7876;DHT22;69649;53.712;9.680;2024-02-26T14:12:41;5.90;75.10
7876;DHT22;69649;53.712;9.680;2024-02-26T14:15:08;6.00;75.20
7876;DHT22;69649;53.712;9.680;2024-02-26T14:17:35;6.10;75.00
7876;DHT22;69649;53.712;9.680;2024-02-26T14:20:01;6.20;74.70
7876;DHT22;69649;53.712;9.680;2024-02-26T14:22:27;6.30;74.60
7876;DHT22;69649;53.712;9.680;2024-02-26T14:24:53;6.60;74.00
7876;DHT22;69649;53.712;9.680;2024-02-26T14:27:19;6.80;73.60
7876;DHT22;69649;53.712;9.680;2024-02-26T14:29:47;7.00;72.90
7876;DHT22;69649;53.712;9.680;2024-02-26T14:32:13;7.20;72.50
7876;DHT22;69649;53.712;9.680;2024-02-26T14:34:39;7.40;71.60
7876;DHT22;69649;53.712;9.680;2024-02-26T14:37:05;7.60;70.70
7876;DHT22;69649;53.712;9.680;2024-02-26T14:39:32;7.90;70.20
7876;DHT22;69649;53.712;9.680;2024-02-26T14:41:58;7.90;70.00
7876;DHT22;69649;53.712;9.680;2024-02-26T14:44:24;7.60;70.10
7876;DHT22;69649;53.712;9.680;2024-02-26T14:46:50;7.30;70.20
7876;DHT22;69649;53.712;9.680;2024-02-26T14:49:17;7.00;71.10
7876;DHT22;69649;53.712;9.680;2024-02-26T14:51:43;6.90;71.20
7876;DHT22;69649;53.712;9.680;2024-02-26T14:54:14;6.90;71.40
7876;DHT22;69649;53.712;9.680;2024-02-26T14:56:40;6.80;71.60
7876;DHT22;69649;53.712;9.680;2024-02-26T14:59:06;6.80;72.00
7876;DHT22;69649;53.712;9.680;2024-02-26T15:01:32;6.70;72.20
7876;DHT22;69649;53.712;9.680;2024-02-26T15:03:59;6.50;72.50
7876;DHT22;69649;53.712;9.680;2024-02-26T15:06:25;6.30;73.00
7876;DHT22;69649;53.712;9.680;2024-02-26T15:08:52;6.20;73.50
7876;DHT22;69649;53.712;9.680;2024-02-26T15:11:18;6.20;74.00
7876;DHT22;69649;53.712;9.680;2024-02-26T15:13:44;6.10;73.70
7876;DHT22;69649;53.712;9.680;2024-02-26T15:16:18;6.10;74.20
7876;DHT22;69649;53.712;9.680;2024-02-26T15:19:05;6.10;74.30
7876;DHT22;69649;53.712;9.680;2024-02-26T15:21:32;6.10;74.00
7876;DHT22;69649;53.712;9.680;2024-02-26T15:23:58;6.00;73.80
7876;DHT22;69649;53.712;9.680;2024-02-26T15:26:24;5.90;73.80
7876;DHT22;69649;53.712;9.680;2024-02-26T15:28:52;5.80;74.00
7876;DHT22;69649;53.712;9.680;2024-02-26T15:31:19;5.70;74.50
7876;DHT22;69649;53.712;9.680;2024-02-26T15:33:45;5.70;74.50
7876;DHT22;69649;53.712;9.680;2024-02-26T15:36:11;5.60;74.70
7876;DHT22;69649;53.712;9.680;2024-02-26T15:41:24;5.60;74.80
7876;DHT22;69649;53.712;9.680;2024-02-26T15:43:50;5.60;74.80
7876;DHT22;69649;53.712;9.680;2024-02-26T15:46:16;5.60;75.00
7876;DHT22;69649;53.712;9.680;2024-02-26T15:48:42;5.50;75.10
7876;DHT22;69649;53.712;9.680;2024-02-26T15:51:08;5.60;75.20
7876;DHT22;69649;53.712;9.680;2024-02-26T15:53:35;5.50;75.10
7876;DHT22;69649;53.712;9.680;2024-02-26T15:56:01;5.50;75.20
7876;DHT22;69649;53.712;9.680;2024-02-26T15:58:27;5.50;75.30
7876;DHT22;69649;53.712;9.680;2024-02-26T16:00:53;5.50;75.30
7876;DHT22;69649;53.712;9.680;2024-02-26T16:03:18;5.50;75.40
7876;DHT22;69649;53.712;9.680;2024-02-26T16:05:44;5.50;75.40
7876;DHT22;69649;53.712;9.680;2024-02-26T16:08:19;5.50;75.40